Time;durP1;ratioP1;P1;durP2;ratioP2;P2;SDS_P1;SDS_P2;PMS_P1;PMS_P2;Temp;Humidity;BMP_temperature;BMP_pressure;BME280_temperature;BME280_humidity;BME280_pressure;Samples;Min_cycle;Max_cycle;Signal;HPM_P1;HPM_P2
2020/12/19 00:01:32;;;;;;;16.00;8.00;;;;;;;1.16;89.67;99727.84;4941338;28;20103;-61
2020/12/19 00:03:57;;;;;;;12.17;7.07;;;;;;;1.18;90.07;99723.72;4939018;28;20040;-61
2020/12/19 00:06:23;;;;;;;12.60;7.37;;;;;;;1.20;89.72;99732.19;4944349;28;20027;-61
2020/12/19 00:08:49;;;;;;;15.00;7.53;;;;;;;1.17;89.38;99716.94;4949818;28;20225;-61
2020/12/19 00:11:14;;;;;;;13.53;7.17;;;;;;;1.19;89.44;99719.53;4948274;28;20069;-61
2020/12/19 00:13:40;;;;;;;12.53;8.30;;;;;;;1.16;89.48;99725.31;4946746;28;20491;-61
2020/12/19 00:16:05;;;;;;;14.13;7.97;;;;;;;1.17;89.64;99721.13;4943054;28;20028;-61
2020/12/19 00:18:30;;;;;;;14.90;7.37;;;;;;;1.15;89.63;99721.06;4946672;28;20410;-61
2020/12/19 00:20:56;;;;;;;14.00;7.00;;;;;;;1.19;89.65;99719.53;4949004;28;20027;-61
2020/12/19 00:23:21;;;;;;;13.57;7.30;;;;;;;1.20;89.40;99709.47;4940204;28;20028;-61
2020/12/19 00:25:47;;;;;;;12.80;7.60;;;;;;;1.21;89.45;99710.34;4940649;28;20050;-61
2020/12/19 00:28:13;;;;;;;13.13;6.70;;;;;;;1.26;89.59;99718.94;4939615;28;20480;-61
2020/12/19 00:30:38;;;;;;;14.43;7.23;;;;;;;1.23;89.35;99717.16;4945907;28;20027;-60
2020/12/19 00:33:04;;;;;;;14.17;7.70;;;;;;;1.29;89.01;99716.50;4945414;28;20437;-60
2020/12/19 00:35:29;;;;;;;12.43;7.23;;;;;;;1.29;89.21;99711.47;4941995;28;20039;-61
2020/12/19 00:37:54;;;;;;;14.70;7.30;;;;;;;1.26;88.70;99713.88;4944927;28;20467;-61
2020/12/19 00:40:20;;;;;;;11.50;6.70;;;;;;;1.22;89.02;99712.06;4940924;28;20023;-60
2020/12/19 00:42:45;;;;;;;12.70;7.33;;;;;;;1.27;89.22;99711.41;4943487;28;20444;-61
2020/12/19 00:45:11;;;;;;;14.17;7.50;;;;;;;1.32;nan;99711.56;4950822;28;20027;-61
2020/12/19 00:47:37;;;;;;;12.37;7.30;;;;;;;1.34;88.97;99708.31;4944979;28;20357;-61
2020/12/19 00:50:05;;;;;;;12.37;6.80;;;;;;;1.35;88.48;99714.22;4955238;28;20461;-60
2020/12/19 00:52:30;;;;;;;12.50;7.43;;;;;;;1.31;89.23;99703.16;4956196;28;20415;-61
2020/12/19 00:54:56;;;;;;;12.93;7.43;;;;;;;1.32;89.50;99702.31;4956144;29;20050;-61
2020/12/19 00:57:21;;;;;;;13.37;7.47;;;;;;;1.34;89.09;99698.19;4954479;28;20031;-61
2020/12/19 00:59:46;;;;;;;11.90;6.97;;;;;;;1.39;89.34;99698.34;4956458;28;20055;-63
2020/12/19 01:02:12;;;;;;;16.17;7.53;;;;;;;1.39;88.63;99705.94;4954276;28;20456;-61
2020/12/19 01:04:37;;;;;;;15.70;8.10;;;;;;;1.37;88.70;99697.44;4957058;29;20019;-61
2020/12/19 01:07:03;;;;;;;9.87;6.87;;;;;;;1.36;89.03;99700.75;4955052;29;20412;-61
2020/12/19 01:09:28;;;;;;;12.33;8.13;;;;;;;1.33;89.10;99701.53;4953339;28;20087;-60
2020/12/19 01:11:53;;;;;;;13.40;7.13;;;;;;;1.46;89.24;99696.88;4956586;29;20376;-60
2020/12/19 01:14:19;;;;;;;13.67;7.30;;;;;;;1.35;88.50;99694.00;4953726;28;20140;-60
2020/12/19 01:16:44;;;;;;;11.30;7.03;;;;;;;1.38;88.78;99697.50;4956289;29;20034;-61
2020/12/19 01:19:10;;;;;;;14.07;7.50;;;;;;;1.34;89.08;99692.28;4954924;28;20066;-61
2020/12/19 01:21:36;;;;;;;16.30;7.23;;;;;;;1.30;88.64;99692.97;4956957;29;20387;-60
2020/12/19 01:24:01;;;;;;;12.70;7.50;;;;;;;1.22;88.86;99691.88;4955863;29;20038;-61
2020/12/19 01:26:27;;;;;;;14.40;8.10;;;;;;;1.20;89.23;99690.94;4954002;28;20037;-60
2020/12/19 01:28:52;;;;;;;14.37;7.43;;;;;;;1.23;89.32;99694.41;4955923;29;20500;-61
2020/12/19 01:31:20;;;;;;;12.43;6.73;;;;;;;1.26;89.56;99688.63;4955444;29;20049;-60
2020/12/19 01:33:47;;;;;;;9.70;5.90;;;;;;;1.26;89.50;99684.44;4955418;28;20070;-62
2020/12/19 01:36:14;;;;;;;12.13;6.80;;;;;;;1.26;89.08;99686.09;4956827;28;20038;-61
2020/12/19 01:38:41;;;;;;;13.10;6.10;;;;;;;1.25;89.16;99681.84;4955461;28;20102;-60
2020/12/19 01:41:07;;;;;;;9.93;6.10;;;;;;;1.21;89.22;99680.03;4956058;29;20027;-61
2020/12/19 01:43:46;;;;;;;10.87;6.40;;;;;;;1.30;89.04;99676.16;4955224;28;20420;-61
2020/12/19 01:46:22;;;;;;;12.47;7.10;;;;;;;1.31;89.54;99679.56;4955938;28;20031;-61
2020/12/19 01:48:49;;;;;;;13.03;6.73;;;;;;;1.29;88.96;99669.38;4945376;28;20074;-61
2020/12/19 01:51:14;;;;;;;11.13;6.27;;;;;;;1.35;88.93;99674.66;4954437;29;20039;-61
2020/12/19 01:53:40;;;;;;;11.70;6.17;;;;;;;1.28;88.66;99670.19;4954393;28;20350;-61
2020/12/19 01:56:09;;;;;;;11.43;6.73;;;;;;;1.35;88.71;99668.75;4959739;28;20135;-61
2020/12/19 01:58:35;;;;;;;11.30;6.47;;;;;;;1.30;88.82;99660.16;4961841;28;20094;-61
2020/12/19 02:01:01;;;;;;;13.97;7.33;;;;;;;1.32;88.87;99653.47;4960678;28;20428;-61
2020/12/19 02:03:27;;;;;;;9.37;5.63;;;;;;;1.33;88.92;99651.00;4961158;28;20059;-61
2020/12/19 02:05:53;;;;;;;11.93;6.43;;;;;;;1.35;88.64;99651.06;4950852;28;20114;-61
2020/12/19 02:08:18;;;;;;;14.93;8.17;;;;;;;1.37;88.40;99644.38;4954166;29;20062;-61
2020/12/19 02:10:44;;;;;;;12.67;7.20;;;;;;;1.39;88.50;99645.31;4960213;28;20031;-61
2020/12/19 02:13:10;;;;;;;10.87;6.50;;;;;;;1.45;88.64;99645.50;4962538;28;20058;-61
2020/12/19 02:15:43;;;;;;;13.87;6.43;;;;;;;1.45;88.48;99644.63;4961557;29;20054;-61
2020/12/19 02:18:09;;;;;;;11.07;6.43;;;;;;;1.38;88.37;99638.53;4961205;28;20049;-61
2020/12/19 02:20:35;;;;;;;11.03;7.07;;;;;;;1.31;88.09;99640.00;4962535;29;20344;-61
2020/12/19 02:23:03;;;;;;;12.07;6.57;;;;;;;1.37;88.50;99634.28;4959849;28;20042;-60
2020/12/19 02:25:36;;;;;;;11.73;7.27;;;;;;;1.40;89.13;99628.50;4961564;29;20027;-60
2020/12/19 02:28:05;;;;;;;10.67;6.00;;;;;;;1.33;88.85;99624.88;4960603;28;20055;-60
2020/12/19 02:30:31;;;;;;;11.83;6.70;;;;;;;1.29;89.03;99621.41;4962390;29;20141;-61
2020/12/19 02:32:57;;;;;;;10.93;6.40;;;;;;;1.21;88.99;99617.75;4960727;28;20018;-61
2020/12/19 02:35:23;;;;;;;11.00;6.70;;;;;;;1.24;89.19;99614.47;4961413;28;20026;-60
2020/12/19 02:37:49;;;;;;;9.47;6.13;;;;;;;1.27;89.22;99610.38;4959428;28;20358;-60
2020/12/19 02:40:14;;;;;;;12.60;8.37;;;;;;;1.19;89.02;99611.78;4943098;29;20094;-61
2020/12/19 02:42:42;;;;;;;8.30;5.63;;;;;;;1.18;89.63;99611.75;4942207;29;20416;-61
2020/12/19 02:45:07;;;;;;;9.10;6.00;;;;;;;1.18;89.41;99606.69;4942621;28;20054;-60
2020/12/19 02:47:32;;;;;;;12.07;7.03;;;;;;;1.11;89.54;99607.28;4947318;28;20070;-60
2020/12/19 02:49:58;;;;;;;10.90;6.37;;;;;;;1.16;89.59;99611.69;4949623;28;20031;-61
2020/12/19 02:52:23;;;;;;;12.20;6.60;;;;;;;1.15;89.69;99609.97;4955114;28;20043;-60
2020/12/19 02:54:48;;;;;;;11.50;6.77;;;;;;;1.16;89.31;99605.78;4960063;28;20458;-61
2020/12/19 02:57:14;;;;;;;12.70;6.30;;;;;;;1.22;89.18;99599.28;4958186;28;20097;-60
2020/12/19 02:59:39;;;;;;;12.90;7.60;;;;;;;1.18;88.94;99600.00;4961227;29;20062;-60
2020/12/19 03:02:05;;;;;;;11.67;6.87;;;;;;;1.22;89.06;99598.41;4960326;28;20027;-60
2020/12/19 03:04:30;;;;;;;10.77;6.80;;;;;;;1.25;89.01;99599.38;4961373;28;20484;-60
2020/12/19 03:06:56;;;;;;;12.33;6.80;;;;;;;1.28;89.11;99596.09;4959085;28;20106;-60
2020/12/19 03:09:21;;;;;;;13.20;6.53;;;;;;;1.27;89.35;99595.22;4957478;28;20043;-61
2020/12/19 03:11:46;;;;;;;10.77;5.93;;;;;;;1.31;89.06;99601.25;4957582;28;20451;-60
2020/12/19 03:14:12;;;;;;;12.83;6.50;;;;;;;1.27;89.43;99594.38;4971112;28;20059;-60
2020/12/19 03:16:37;;;;;;;13.70;7.07;;;;;;;1.25;89.55;99590.94;4975862;28;20089;-61
2020/12/19 03:19:02;;;;;;;13.97;7.47;;;;;;;1.23;89.56;99590.03;4978092;28;20360;-61
2020/12/19 03:21:28;;;;;;;11.87;6.37;;;;;;;1.20;89.10;99585.72;4957179;28;20035;-60
2020/12/19 03:23:53;;;;;;;12.80;6.60;;;;;;;1.29;88.62;99583.50;4937043;29;20486;-60
2020/12/19 03:26:19;;;;;;;11.93;7.67;;;;;;;1.31;88.82;99593.69;4945174;28;20027;-60
2020/12/19 03:28:44;;;;;;;11.87;6.57;;;;;;;1.35;88.95;99583.72;4976048;28;20456;-60
2020/12/19 03:31:09;;;;;;;11.17;6.60;;;;;;;1.29;88.23;99581.00;4975675;28;20042;-60
2020/12/19 03:33:35;;;;;;;15.50;7.10;;;;;;;1.31;88.70;99581.91;4977378;28;20038;-60
2020/12/19 03:36:00;;;;;;;11.50;6.23;;;;;;;1.33;88.97;99587.84;4976523;28;20034;-62
2020/12/19 03:38:26;;;;;;;13.23;6.73;;;;;;;1.34;88.28;99581.13;4976951;28;20038;-60
2020/12/19 03:40:51;;;;;;;12.97;6.67;;;;;;;1.27;88.53;99580.06;4976404;28;20042;-60
2020/12/19 03:43:17;;;;;;;10.90;6.63;;;;;;;1.26;88.87;99573.31;4976514;28;20041;-60
2020/12/19 03:45:42;;;;;;;12.03;6.47;;;;;;;1.23;88.74;99578.25;4976734;28;20093;-60
2020/12/19 03:48:08;;;;;;;11.87;6.33;;;;;;;1.27;88.78;99572.50;4961147;28;20047;-62
2020/12/19 03:50:33;;;;;;;9.80;6.03;;;;;;;1.22;89.21;99578.22;4957288;29;20042;-62
2020/12/19 03:52:59;;;;;;;12.40;6.47;;;;;;;1.26;89.37;99574.97;4969612;28;20428;-60
2020/12/19 03:55:24;;;;;;;13.87;7.20;;;;;;;1.30;88.55;99577.66;4976987;28;20031;-60
2020/12/19 03:57:49;;;;;;;11.47;7.03;;;;;;;1.25;88.84;99581.69;4975858;28;20065;-61
2020/12/19 04:00:15;;;;;;;12.17;7.30;;;;;;;1.27;88.61;99576.72;4976761;28;20101;-61
2020/12/19 04:02:41;;;;;;;12.47;7.53;;;;;;;1.28;89.22;99573.34;4975408;28;20038;-60
2020/12/19 04:05:10;;;;;;;9.10;6.07;;;;;;;1.28;89.13;99574.22;4976537;28;20027;-60
2020/12/19 04:07:36;;;;;;;9.37;5.60;;;;;;;1.32;89.04;99572.63;4975671;28;20026;-61
2020/12/19 04:10:04;;;;;;;12.80;6.63;;;;;;;1.35;88.95;99567.72;4976327;28;20065;-60
2020/12/19 04:12:29;;;;;;;13.30;6.60;;;;;;;1.34;89.43;99571.03;4975206;28;20041;-61
2020/12/19 04:14:55;;;;;;;10.87;6.33;;;;;;;1.31;88.93;99571.81;4974840;28;20055;-61
2020/12/19 04:17:20;;;;;;;15.87;7.57;;;;;;;1.30;89.51;99565.03;4967854;28;20047;-61
2020/12/19 04:19:45;;;;;;;13.33;7.83;;;;;;;1.35;89.05;99565.19;4942945;29;20158;-60
2020/12/19 04:22:11;;;;;;;13.57;7.20;;;;;;;1.36;88.92;99557.63;4957139;28;20039;-61
2020/12/19 04:24:36;;;;;;;14.67;7.53;;;;;;;1.40;89.27;99558.59;4976818;28;20026;-60
2020/12/19 04:27:03;;;;;;;16.17;7.87;;;;;;;1.47;88.87;99555.47;4975832;28;20347;-60
2020/12/19 04:29:29;;;;;;;11.73;6.70;;;;;;;1.39;88.79;99561.94;4956238;28;20031;-60
2020/12/19 04:31:55;;;;;;;13.83;7.37;;;;;;;1.45;89.03;99561.25;4956232;28;20338;-60
2020/12/19 04:34:21;;;;;;;19.07;7.60;;;;;;;1.44;88.57;99559.56;4975572;28;20039;-61
2020/12/19 04:36:46;;;;;;;14.93;8.40;;;;;;;1.40;89.16;99558.59;4977324;28;20027;-60
2020/12/19 04:39:12;;;;;;;15.90;8.27;;;;;;;1.38;89.23;99558.56;4975570;28;20049;-60
2020/12/19 04:41:37;;;;;;;15.57;8.83;;;;;;;1.34;89.27;99555.88;4975720;28;20337;-60
2020/12/19 04:44:03;;;;;;;13.00;7.23;;;;;;;1.46;89.40;99563.00;4974103;28;20031;-60
2020/12/19 04:46:30;;;;;;;14.63;7.53;;;;;;;1.48;89.24;99563.91;4975037;28;20034;-60
2020/12/19 04:48:58;;;;;;;16.00;7.70;;;;;;;1.49;88.90;99563.06;4951843;28;20122;-60
2020/12/19 04:51:25;;;;;;;14.33;8.83;;;;;;;1.47;89.05;99567.25;4955859;29;20405;-60
2020/12/19 04:53:51;;;;;;;17.27;7.70;;;;;;;1.42;89.50;99574.66;4965755;28;20031;-61
2020/12/19 04:56:17;;;;;;;13.73;7.50;;;;;;;1.49;89.35;99563.06;4975544;28;20523;-62
2020/12/19 04:58:43;;;;;;;17.20;8.17;;;;;;;1.44;89.10;99567.16;4973999;28;20030;-59
2020/12/19 05:01:09;;;;;;;15.77;8.47;;;;;;;1.53;89.19;99569.97;4975090;28;20035;-60
2020/12/19 05:03:34;;;;;;;21.20;11.73;;;;;;;1.49;88.88;99560.53;4974818;28;20043;-60
2020/12/19 05:06:00;;;;;;;19.03;10.03;;;;;;;1.48;89.20;99561.38;4975754;28;20425;-60
2020/12/19 05:08:25;;;;;;;16.13;9.03;;;;;;;1.55;89.13;99564.16;4974525;28;20085;-60
2020/12/19 05:10:51;;;;;;;17.60;9.03;;;;;;;1.52;89.37;99565.72;4975744;28;20023;-60
2020/12/19 05:13:16;;;;;;;14.23;7.70;;;;;;;1.45;nan;99563.78;4973855;28;20085;-60
2020/12/19 05:15:42;;;;;;;16.83;9.27;;;;;;;1.49;89.33;99563.94;4974753;28;20472;-60
2020/12/19 05:18:07;;;;;;;16.77;8.17;;;;;;;1.54;89.51;99552.31;4973658;28;20042;-61
2020/12/19 05:20:33;;;;;;;13.87;7.63;;;;;;;1.50;89.59;99553.03;4963348;28;20477;-61
2020/12/19 05:22:58;;;;;;;17.67;9.67;;;;;;;1.50;89.42;99559.75;4955175;29;20115;-61
2020/12/19 05:25:26;;;;;;;20.27;9.27;;;;;;;1.59;89.67;99547.41;4938617;28;20041;-60
2020/12/19 05:27:51;;;;;;;14.83;8.23;;;;;;;1.47;89.24;99558.00;4950359;28;20035;-61
2020/12/19 05:30:19;;;;;;;18.60;10.40;;;;;;;1.55;89.23;99553.19;4954269;28;20028;-60
2020/12/19 05:32:48;;;;;;;19.47;9.57;;;;;;;1.55;89.67;99554.03;4968150;28;20054;-60
2020/12/19 05:35:15;;;;;;;18.47;10.23;;;;;;;1.54;89.20;99557.38;4974995;28;20042;-60
2020/12/19 05:37:41;;;;;;;19.20;9.23;;;;;;;1.52;89.44;99566.59;4963007;28;20039;-61
2020/12/19 05:40:12;;;;;;;18.07;10.10;;;;;;;1.57;89.35;99561.69;4956519;29;20038;-61
2020/12/19 05:42:40;;;;;;;14.83;8.30;;;;;;;1.59;89.60;99560.91;4956573;29;20077;-60
2020/12/19 05:45:21;;;;;;;14.93;8.63;;;;;;;1.63;89.94;99566.91;4956546;29;20039;-61
2020/12/19 05:47:47;;;;;;;16.17;9.80;;;;;;;1.46;89.41;99563.84;4956475;29;20035;-60
2020/12/19 05:50:13;;;;;;;21.60;10.47;;;;;;;1.55;89.25;99561.63;4956254;29;20067;-61
2020/12/19 05:52:40;;;;;;;19.57;8.57;;;;;;;1.54;89.41;99564.09;4943929;28;20357;-60
2020/12/19 05:55:10;;;;;;;16.90;9.40;;;;;;;1.58;89.22;99559.19;4939472;28;20046;-60
2020/12/19 05:57:37;;;;;;;17.77;10.17;;;;;;;1.63;89.39;99560.19;4937760;28;20460;-60
2020/12/19 06:00:09;;;;;;;16.90;9.03;;;;;;;1.64;89.08;99564.44;4940319;28;20059;-61
2020/12/19 06:02:36;;;;;;;19.33;9.47;;;;;;;1.55;89.45;99565.81;4935706;29;20042;-61
2020/12/19 06:05:06;;;;;;;18.37;9.77;;;;;;;1.60;89.65;99564.28;4935929;29;20040;-61
2020/12/19 06:07:39;;;;;;;16.73;9.27;;;;;;;1.58;89.44;99558.31;4937550;29;20051;-61
2020/12/19 06:10:07;;;;;;;15.40;8.57;;;;;;;1.62;89.53;99566.03;4936261;29;20036;-61
2020/12/19 06:13:10;;;;;;;17.73;9.03;;;;;;;1.66;89.37;99564.47;4944091;28;20061;-62
2020/12/19 06:16:00;;;;;;;18.40;9.87;;;;;;;1.66;88.75;99565.31;4916540;29;20146;-61
2020/12/19 06:18:54;;;;;;;21.80;8.83;;;;;;;1.68;89.51;99563.72;4935286;29;20024;-62
2020/12/19 06:21:20;;;;;;;17.93;8.90;;;;;;;1.62;89.23;99566.03;4936284;29;20035;-62
2020/12/19 06:23:45;;;;;;;17.20;9.10;;;;;;;1.57;89.28;99574.31;4936311;29;20031;-61
2020/12/19 06:26:12;;;;;;;16.40;8.47;;;;;;;1.59;89.17;99555.00;4935347;29;20036;-62
2020/12/19 06:28:40;;;;;;;14.87;9.10;;;;;;;1.63;88.94;99564.38;4937076;29;20353;-62
2020/12/19 06:31:07;;;;;;;16.03;8.93;;;;;;;1.69;88.86;99560.38;4935085;29;20028;-62
2020/12/19 06:33:34;;;;;;;16.93;10.73;;;;;;;1.76;88.89;99562.28;4919655;29;20036;-62
2020/12/19 06:36:16;;;;;;;14.90;8.50;;;;;;;1.67;88.67;99564.53;4917777;29;20036;-61
2020/12/19 06:38:54;;;;;;;14.87;7.77;;;;;;;1.79;89.01;99564.03;4918729;29;20125;-62
2020/12/19 06:41:42;;;;;;;15.30;7.77;;;;;;;1.76;88.55;99567.34;4937398;29;20102;-62
2020/12/19 06:44:15;;;;;;;14.73;7.83;;;;;;;1.79;88.76;99561.50;4953406;29;20027;-61
2020/12/19 06:46:41;;;;;;;14.87;8.53;;;;;;;1.69;88.19;99560.38;4940697;29;20086;-61
2020/12/19 06:49:22;;;;;;;16.40;9.30;;;;;;;1.78;88.16;99564.88;4938445;29;20023;-61
2020/12/19 06:52:13;;;;;;;17.13;8.57;;;;;;;1.57;88.45;99559.97;4940307;29;20035;-62
2020/12/19 06:54:47;;;;;;;15.57;8.50;;;;;;;1.67;89.15;99567.06;4938329;29;20031;-61
2020/12/19 06:57:25;;;;;;;17.27;9.27;;;;;;;1.76;88.81;99571.53;4940369;29;20059;-61
2020/12/19 06:59:51;;;;;;;14.20;8.40;;;;;;;1.70;88.74;99573.84;4937950;29;20182;-61
2020/12/19 07:02:25;;;;;;;15.57;9.13;;;;;;;1.74;88.73;99576.53;4939146;29;20075;-61
2020/12/19 07:04:52;;;;;;;14.87;7.80;;;;;;;1.80;88.78;99579.25;4938760;29;20039;-62
2020/12/19 07:07:25;;;;;;;15.77;8.17;;;;;;;1.84;88.51;99585.25;4920864;29;20058;-61
2020/12/19 07:09:59;;;;;;;16.13;8.03;;;;;;;1.82;89.08;99581.84;4919174;29;20035;-61
2020/12/19 07:12:34;;;;;;;17.67;8.20;;;;;;;1.80;88.99;99571.69;4918599;29;20038;-60
2020/12/19 07:15:00;;;;;;;15.32;8.57;;;;;;;1.76;89.18;99579.97;4938501;29;20155;-59
2020/12/19 07:17:25;;;;;;;13.20;7.00;;;;;;;1.77;88.45;99579.19;4938259;29;20031;-60
2020/12/19 07:19:59;;;;;;;14.90;7.80;;;;;;;1.83;88.34;99578.47;4955520;28;20034;-60
2020/12/19 07:22:26;;;;;;;16.50;8.13;;;;;;;1.89;88.19;99580.34;4956610;29;20023;-60
2020/12/19 07:24:55;;;;;;;11.20;7.47;;;;;;;1.88;88.21;99587.06;4957365;28;20333;-60
2020/12/19 07:27:21;;;;;;;9.83;6.23;;;;;;;1.89;87.69;99582.88;4957297;29;20042;-61
2020/12/19 07:29:47;;;;;;;14.17;7.23;;;;;;;1.87;87.29;99570.19;4956866;28;20027;-61
2020/12/19 07:32:13;;;;;;;17.00;8.00;;;;;;;1.90;88.17;99582.94;4957489;29;20033;-61
2020/12/19 07:34:38;;;;;;;14.33;7.50;;;;;;;1.92;88.00;99578.78;4956985;28;20089;-61
2020/12/19 07:37:05;;;;;;;12.33;7.57;;;;;;;1.92;87.68;99577.91;4957812;28;20420;-61
2020/12/19 07:39:31;;;;;;;14.10;8.33;;;;;;;1.97;87.68;99587.34;4955831;28;20033;-61
2020/12/19 07:42:10;;;;;;;15.63;7.97;;;;;;;2.03;87.97;99581.63;4957824;29;20023;-61
2020/12/19 07:44:37;;;;;;;13.53;7.87;;;;;;;2.02;87.88;99580.78;4956917;28;20423;-61
2020/12/19 07:47:06;;;;;;;11.40;6.77;;;;;;;1.92;87.76;99588.03;4957791;28;20054;-62
2020/12/19 07:49:36;;;;;;;12.13;7.37;;;;;;;1.99;88.13;99574.78;4956573;28;20031;-61
2020/12/19 07:52:23;;;;;;;12.43;7.00;;;;;;;2.14;88.15;99581.13;4957073;29;20035;-61
2020/12/19 07:54:55;;;;;;;11.57;7.20;;;;;;;2.13;88.07;99576.03;4944514;29;20035;-62
2020/12/19 07:57:21;;;;;;;11.10;6.70;;;;;;;2.01;87.84;99578.19;4955966;28;20055;-62
2020/12/19 07:59:47;;;;;;;11.43;7.23;;;;;;;2.15;87.80;99575.28;4955203;28;20114;-62
2020/12/19 08:02:15;;;;;;;12.80;7.57;;;;;;;2.15;87.30;99570.22;4956046;28;20034;-61
2020/12/19 08:04:57;;;;;;;15.07;7.50;;;;;;;2.17;86.56;99573.63;4954742;29;20027;-62
2020/12/19 08:07:28;;;;;;;17.97;9.97;;;;;;;2.20;87.04;99573.75;4957039;28;20112;-61
2020/12/19 08:10:01;;;;;;;18.03;10.80;;;;;;;2.24;87.32;99572.16;4953707;29;20030;-62
2020/12/19 08:12:27;;;;;;;16.63;9.33;;;;;;;2.21;87.17;99572.91;4952255;28;20031;-62
2020/12/19 08:14:53;;;;;;;14.57;9.33;;;;;;;2.30;87.01;99565.59;4951934;28;20062;-62
2020/12/19 08:17:19;;;;;;;15.30;8.63;;;;;;;2.27;86.78;99573.09;4953113;28;22637;-62
2020/12/19 08:19:55;;;;;;;12.57;8.93;;;;;;;2.42;86.96;99570.13;4951586;28;20436;-62
2020/12/19 08:22:22;;;;;;;10.97;7.73;;;;;;;2.37;85.94;99569.16;4953845;28;20449;-62
2020/12/19 08:24:52;;;;;;;12.47;8.37;;;;;;;2.50;86.64;99570.38;4953568;28;20106;-62
2020/12/19 08:27:36;;;;;;;10.00;6.97;;;;;;;2.45;86.05;99565.16;4952730;28;20047;-62
2020/12/19 08:30:07;;;;;;;11.67;7.43;;;;;;;2.38;86.41;99570.84;4949521;28;20015;-62
2020/12/19 08:32:33;;;;;;;11.57;7.13;;;;;;;2.40;86.06;99563.31;4952106;28;20476;-62
2020/12/19 08:34:59;;;;;;;10.57;6.20;;;;;;;2.46;86.48;99551.69;4952804;28;20054;-62
2020/12/19 08:37:25;;;;;;;10.07;7.03;;;;;;;2.50;86.56;99555.19;4955502;28;20035;-62
2020/12/19 08:40:20;;;;;;;10.33;6.27;;;;;;;2.59;85.60;99552.91;4954826;28;20027;-62
2020/12/19 08:42:49;;;;;;;9.57;5.37;;;;;;;2.57;85.74;99557.06;4950001;28;20039;-63
2020/12/19 08:45:20;;;;;;;11.13;6.80;;;;;;;2.56;85.45;99558.72;4955836;28;20034;-62
2020/12/19 08:47:45;;;;;;;11.23;6.50;;;;;;;2.63;85.40;99558.06;4956087;28;20031;-62
2020/12/19 08:50:11;;;;;;;8.90;6.57;;;;;;;2.60;85.50;99558.00;4955923;28;20102;-62
2020/12/19 08:52:38;;;;;;;8.63;6.23;;;;;;;2.66;85.09;99562.38;4955583;29;20444;-62
2020/12/19 08:55:03;;;;;;;8.10;6.03;;;;;;;2.69;85.62;99564.97;4955356;28;20113;-64
2020/12/19 08:57:31;;;;;;;11.07;6.90;;;;;;;2.76;85.39;99566.84;4956394;29;20110;-62
2020/12/19 09:00:15;;;;;;;11.00;7.57;;;;;;;2.87;85.27;99562.94;4952629;28;20055;-62
2020/12/19 09:02:42;;;;;;;10.60;7.77;;;;;;;2.64;85.64;99554.72;4944193;28;20035;-62
2020/12/19 09:05:09;;;;;;;9.73;7.10;;;;;;;2.61;85.85;99561.38;4954989;28;20023;-62
2020/12/19 09:07:34;;;;;;;12.80;7.43;;;;;;;2.62;86.20;99560.56;4955283;28;20428;-62
2020/12/19 09:10:00;;;;;;;11.50;6.93;;;;;;;2.68;86.23;99556.53;4954627;29;20023;-62
2020/12/19 09:12:26;;;;;;;12.43;7.60;;;;;;;2.79;86.31;99559.34;4953843;29;20027;-62
2020/12/19 09:14:51;;;;;;;11.50;7.50;;;;;;;2.82;85.73;99554.38;4973405;28;20058;-62
2020/12/19 09:17:31;;;;;;;14.33;7.57;;;;;;;2.90;85.19;99552.03;4965478;28;21432;-62
2020/12/19 09:20:05;;;;;;;11.37;7.30;;;;;;;2.86;85.30;99548.56;4965546;28;20029;-61
2020/12/19 09:22:33;;;;;;;11.65;7.82;;;;;;;2.81;85.31;99552.63;4955272;28;20110;-61
2020/12/19 09:24:58;;;;;;;12.10;6.43;;;;;;;2.73;85.58;99552.44;4955158;29;20504;-62
2020/12/19 09:27:24;;;;;;;10.37;6.80;;;;;;;2.86;85.31;99548.56;4945786;28;20111;-62
2020/12/19 09:29:49;;;;;;;12.37;7.20;;;;;;;2.84;84.69;99547.69;4954461;29;20027;-61
2020/12/19 09:32:15;;;;;;;11.17;5.90;;;;;;;2.76;85.05;99541.53;4961921;28;20022;-61
2020/12/19 09:34:40;;;;;;;9.07;6.37;;;;;;;2.81;85.08;99539.13;4966941;28;20027;-65
2020/12/19 09:37:06;;;;;;;10.60;6.17;;;;;;;2.87;85.20;99534.22;4951019;28;20074;-60
2020/12/19 09:39:31;;;;;;;13.63;6.60;;;;;;;2.85;85.01;99535.84;4939791;28;20046;-61
2020/12/19 09:41:57;;;;;;;10.77;6.43;;;;;;;2.89;85.21;99530.91;4950778;28;20030;-61
2020/12/19 09:44:22;;;;;;;10.40;6.50;;;;;;;2.91;85.23;99534.34;4946190;28;20031;-61
2020/12/19 09:46:48;;;;;;;11.63;7.10;;;;;;;2.91;85.58;99528.44;4942803;28;20531;-61
2020/12/19 09:49:13;;;;;;;9.23;6.43;;;;;;;2.94;84.97;99526.81;4948565;28;20185;-61
2020/12/19 09:51:38;;;;;;;10.70;6.20;;;;;;;2.96;85.51;99527.72;4952135;28;20027;-61
2020/12/19 09:54:04;;;;;;;10.50;7.07;;;;;;;3.10;84.99;99517.94;4953587;28;20448;-61
2020/12/19 09:56:37;;;;;;;9.50;6.33;;;;;;;3.24;85.03;99509.00;4951127;28;20030;-61
2020/12/19 09:59:03;;;;;;;8.30;5.87;;;;;;;3.29;83.82;99501.50;4954816;28;20364;-61
2020/12/19 10:01:28;;;;;;;10.77;6.53;;;;;;;3.23;84.07;99502.22;4937526;28;20050;-61
2020/12/19 10:03:54;;;;;;;9.80;6.20;;;;;;;3.28;84.13;99500.66;4949093;28;20117;-61
2020/12/19 10:06:19;;;;;;;9.30;6.27;;;;;;;3.25;84.17;99487.91;4945217;28;20041;-62
2020/12/19 10:08:44;;;;;;;10.80;5.80;;;;;;;3.14;84.04;99487.63;4941180;28;20062;-61
2020/12/19 10:11:10;;;;;;;11.10;7.40;;;;;;;3.21;83.98;99491.19;4947956;28;20059;-62
2020/12/19 10:13:36;;;;;;;12.90;7.17;;;;;;;3.26;84.72;99488.78;4954764;28;20468;-63
2020/12/19 10:16:03;;;;;;;9.33;6.00;;;;;;;3.23;84.59;99490.41;4955537;28;20082;-63
2020/12/19 10:18:29;;;;;;;12.53;8.07;;;;;;;3.31;84.44;99485.50;4959103;28;20333;-62
2020/12/19 10:20:54;;;;;;;11.20;7.23;;;;;;;3.29;83.96;99487.16;4958855;28;20392;-62
2020/12/19 10:23:20;;;;;;;11.77;7.30;;;;;;;3.22;84.02;99488.69;4958546;28;20050;-62
2020/12/19 10:25:45;;;;;;;13.90;7.83;;;;;;;3.32;84.33;99479.63;4952873;28;20034;-62
2020/12/19 10:28:10;;;;;;;14.07;7.70;;;;;;;3.30;83.98;99483.81;4946546;28;20533;-62
2020/12/19 10:30:36;;;;;;;12.47;7.60;;;;;;;3.33;83.42;99476.28;4956951;28;20118;-61
2020/12/19 10:33:01;;;;;;;9.53;5.87;;;;;;;3.29;83.73;99477.03;4955783;28;20027;-62
2020/12/19 10:35:27;;;;;;;8.87;6.63;;;;;;;3.30;84.18;99466.06;4945752;28;20098;-61
2020/12/19 10:37:52;;;;;;;9.03;6.50;;;;;;;3.31;84.63;99465.22;4947470;28;20456;-63
2020/12/19 10:40:18;;;;;;;18.60;10.70;;;;;;;3.37;83.91;99465.38;4953445;28;20074;-63
2020/12/19 10:42:43;;;;;;;11.97;8.33;;;;;;;3.34;84.25;99460.25;4938509;29;20395;-61
2020/12/19 10:45:09;;;;;;;16.57;9.03;;;;;;;3.42;84.08;99453.69;4946908;28;20475;-61
2020/12/19 10:47:34;;;;;;;10.67;6.90;;;;;;;3.26;84.44;99456.69;4954714;28;20069;-61
2020/12/19 10:50:00;;;;;;;12.93;8.53;;;;;;;3.36;84.27;99453.53;4958271;28;20110;-61
2020/12/19 10:52:25;;;;;;;13.03;8.90;;;;;;;3.46;84.07;99452.06;4957768;28;20023;-62
2020/12/19 10:54:51;;;;;;;13.00;7.87;;;;;;;3.43;84.19;99447.81;4958105;28;20054;-62
2020/12/19 10:57:16;;;;;;;12.67;7.87;;;;;;;3.49;83.75;99444.53;4949815;28;20114;-62
2020/12/19 10:59:41;;;;;;;11.30;7.97;;;;;;;3.47;83.36;99448.72;4951722;28;20182;-63
2020/12/19 11:02:07;;;;;;;12.13;7.33;;;;;;;3.54;83.27;99443.81;4954228;28;20519;-62
2020/12/19 11:04:32;;;;;;;10.43;6.70;;;;;;;3.50;83.43;99446.25;4953668;28;20023;-62
2020/12/19 11:06:57;;;;;;;11.50;7.07;;;;;;;3.53;83.45;99436.16;4949222;28;20024;-62
2020/12/19 11:09:23;;;;;;;11.13;6.30;;;;;;;3.54;83.43;99433.66;4949872;28;20166;-62
2020/12/19 11:11:50;;;;;;;10.23;7.10;;;;;;;3.64;83.28;99429.66;4946733;28;20036;-62
2020/12/19 11:14:15;;;;;;;13.13;8.80;;;;;;;3.46;84.36;99429.25;4943952;28;20062;-62
2020/12/19 11:16:41;;;;;;;24.53;12.23;;;;;;;3.41;84.08;99434.22;4947072;28;20035;-62
2020/12/19 11:19:09;;;;;;;22.17;9.13;;;;;;;3.44;84.14;99431.75;4937684;28;20030;-62
2020/12/19 11:21:41;;;;;;;10.73;8.23;;;;;;;3.53;84.05;99429.41;4953907;28;20377;-62
2020/12/19 11:24:06;;;;;;;11.73;7.97;;;;;;;3.47;83.81;99433.50;4948035;28;20031;-62
2020/12/19 11:26:32;;;;;;;13.10;7.80;;;;;;;3.46;83.51;99426.72;4948927;28;20461;-62
2020/12/19 11:28:57;;;;;;;9.47;7.47;;;;;;;3.51;83.69;99422.63;4945118;28;20115;-63
2020/12/19 11:31:26;;;;;;;12.63;8.03;;;;;;;3.65;83.19;99421.22;4947867;28;20032;-62
2020/12/19 11:33:53;;;;;;;15.10;8.50;;;;;;;3.64;84.25;99419.53;4948514;28;20023;-62
2020/12/19 11:36:18;;;;;;;12.67;7.60;;;;;;;3.73;84.53;99414.66;4947253;28;20055;-62